Time;durP1;ratioP1;P1;durP2;ratioP2;P2;SDS_P1;SDS_P2;PMS_P1;PMS_P2;Temp;Humidity;BMP_temperature;BMP_pressure;BME280_temperature;BME280_humidity;BME280_pressure;Samples;Min_cycle;Max_cycle;Signal;HPM_P1;HPM_P2
2022/07/08 00:02:02;;;;;;;6.00;1.20;;;19.60;99.90;;;;;;7398941;19;20162;-76
2022/07/08 00:04:28;;;;;;;4.28;1.10;;;19.60;99.90;;;;;;7395858;19;20170;-77
2022/07/08 00:06:54;;;;;;;5.07;1.30;;;19.50;99.90;;;;;;7394578;19;20143;-79
2022/07/08 00:09:20;;;;;;;4.28;1.15;;;19.40;99.90;;;;;;7397531;19;20150;-76
2022/07/08 00:11:46;;;;;;;3.72;1.33;;;19.30;99.90;;;;;;7397102;19;20150;-77
2022/07/08 00:14:11;;;;;;;3.47;1.10;;;19.20;99.90;;;;;;7398824;19;20138;-77
2022/07/08 00:16:40;;;;;;;1.63;0.88;;;19.20;99.90;;;;;;7397199;19;20146;-78
2022/07/08 00:19:11;;;;;;;4.75;1.35;;;19.30;99.90;;;;;;7397889;19;20163;-77
2022/07/08 00:21:37;;;;;;;2.28;1.00;;;19.30;99.90;;;;;;7399673;19;20139;-77
2022/07/08 00:24:04;;;;;;;4.10;1.20;;;19.20;99.90;;;;;;7397812;19;20464;-78
2022/07/08 00:26:30;;;;;;;6.82;1.23;;;19.20;99.90;;;;;;7392896;19;20512;-78
2022/07/08 00:28:56;;;;;;;2.75;1.13;;;19.10;99.90;;;;;;7395671;19;20153;-79
2022/07/08 00:31:22;;;;;;;3.90;1.30;;;19.00;99.90;;;;;;7397157;19;20214;-78
2022/07/08 00:33:56;;;;;;;6.03;1.33;;;19.00;99.90;;;;;;7399556;19;20135;-77
2022/07/08 00:36:22;;;;;;;3.55;1.23;;;18.90;99.90;;;;;;7397170;19;20162;-78
2022/07/08 00:38:48;;;;;;;4.20;1.50;;;18.90;99.90;;;;;;7398994;19;20135;-77
2022/07/08 00:41:14;;;;;;;5.97;1.70;;;18.80;99.90;;;;;;7395849;19;20134;-78
2022/07/08 00:43:42;;;;;;;5.95;1.52;;;18.80;99.90;;;;;;7396913;19;20158;-79
2022/07/08 00:46:09;;;;;;;3.65;1.65;;;18.60;99.90;;;;;;7395613;19;20172;-77
2022/07/08 00:48:36;;;;;;;5.07;1.40;;;18.60;99.90;;;;;;7395840;19;20819;-78
2022/07/08 00:51:05;;;;;;;3.60;1.80;;;18.70;99.90;;;;;;7396464;19;20123;-77
2022/07/08 00:53:33;;;;;;;4.82;1.40;;;18.70;99.90;;;;;;7398497;19;20134;-77
2022/07/08 00:56:00;;;;;;;6.05;1.63;;;18.80;99.90;;;;;;7395422;19;20607;-77
2022/07/08 00:58:26;;;;;;;4.30;1.73;;;18.70;99.90;;;;;;7397288;19;20206;-77
2022/07/08 01:00:55;;;;;;;6.43;1.50;;;18.80;99.90;;;;;;7396772;19;20147;-77
2022/07/08 01:03:21;;;;;;;3.00;1.30;;;18.70;99.90;;;;;;7396130;19;20139;-77
2022/07/08 01:05:46;;;;;;;3.28;1.70;;;18.70;99.90;;;;;;7396164;19;20152;-77
2022/07/08 01:08:13;;;;;;;6.63;1.42;;;18.80;99.90;;;;;;7398106;19;20130;-78
2022/07/08 01:10:39;;;;;;;5.13;1.90;;;18.70;99.90;;;;;;7400220;19;20861;-78
2022/07/08 01:13:06;;;;;;;4.97;1.40;;;18.70;99.90;;;;;;7395782;19;20154;-78
2022/07/08 01:15:33;;;;;;;6.95;1.65;;;18.60;99.90;;;;;;7396159;19;20151;-77
2022/07/08 01:17:58;;;;;;;2.65;1.30;;;18.60;99.90;;;;;;7395245;19;20158;-76
2022/07/08 01:20:25;;;;;;;4.28;1.70;;;18.60;99.90;;;;;;7395678;19;20151;-76
2022/07/08 01:22:51;;;;;;;1.80;1.40;;;18.60;99.90;;;;;;7396079;19;20172;-76
2022/07/08 01:25:17;;;;;;;3.22;1.48;;;18.70;99.90;;;;;;7393552;19;20765;-77
2022/07/08 01:27:44;;;;;;;6.45;1.67;;;18.60;99.90;;;;;;7394340;19;20497;-75
2022/07/08 01:30:10;;;;;;;2.80;1.35;;;18.70;99.90;;;;;;7395689;19;20534;-77
2022/07/08 01:32:39;;;;;;;4.03;1.58;;;18.70;99.90;;;;;;7394965;19;20150;-77
2022/07/08 01:35:05;;;;;;;3.50;1.48;;;18.80;99.90;;;;;;7395039;19;20564;-76
2022/07/08 01:37:31;;;;;;;4.03;1.60;;;18.90;99.90;;;;;;7395684;19;20493;-76
2022/07/08 01:39:57;;;;;;;4.28;1.70;;;18.80;99.90;;;;;;7392641;19;20146;-78
2022/07/08 01:42:23;;;;;;;4.38;1.50;;;18.80;99.90;;;;;;7394767;19;20118;-76
2022/07/08 01:44:49;;;;;;;4.40;1.30;;;18.70;99.90;;;;;;7394063;19;20152;-76
2022/07/08 01:47:15;;;;;;;3.75;1.45;;;18.70;99.90;;;;;;7395647;19;20147;-77
2022/07/08 01:49:41;;;;;;;3.45;1.40;;;18.40;99.90;;;;;;7394334;19;20194;-77
2022/07/08 01:52:08;;;;;;;4.25;1.70;;;18.50;99.90;;;;;;7397957;19;20150;-77
2022/07/08 01:54:37;;;;;;;4.00;1.65;;;18.60;99.90;;;;;;7393589;19;20141;-76
2022/07/08 01:57:15;;;;;;;4.03;1.25;;;18.50;99.90;;;;;;7397014;19;20119;-77
2022/07/08 01:59:42;;;;;;;4.60;1.30;;;18.40;99.90;;;;;;7394001;19;20153;-77
2022/07/08 02:02:08;;;;;;;3.53;1.40;;;18.40;99.90;;;;;;7394916;19;20127;-77
2022/07/08 02:04:34;;;;;;;4.13;1.70;;;18.30;99.90;;;;;;7394212;19;20154;-76
2022/07/08 02:07:04;;;;;;;4.32;1.45;;;18.00;99.90;;;;;;7396612;19;20611;-77
2022/07/08 02:09:30;;;;;;;5.05;1.45;;;18.10;99.90;;;;;;7399554;19;20479;-75
2022/07/08 02:14:41;;;;;;;2.55;1.55;;;18.00;99.90;;;;;;7399391;19;20137;-75
2022/07/08 02:17:08;;;;;;;3.85;0.98;;;18.00;99.90;;;;;;7395029;19;20145;-79
2022/07/08 02:19:34;;;;;;;3.25;1.40;;;17.90;99.90;;;;;;7397238;19;20170;-77
2022/07/08 02:22:00;;;;;;;4.97;1.10;;;18.00;99.90;;;;;;7393166;19;20146;-76
2022/07/08 02:24:29;;;;;;;4.15;1.40;;;17.90;99.90;;;;;;7393424;19;20142;-76
2022/07/08 02:26:54;;;;;;;6.15;1.50;;;18.00;99.90;;;;;;7389290;19;20275;-77
2022/07/08 02:29:20;;;;;;;2.58;1.20;;;18.10;99.90;;;;;;7387312;19;20213;-77
2022/07/08 02:31:46;;;;;;;3.25;1.30;;;18.20;99.90;;;;;;7395493;19;20643;-78
2022/07/08 02:34:12;;;;;;;5.80;1.70;;;18.30;99.90;;;;;;7395240;19;20155;-77
2022/07/08 02:36:38;;;;;;;2.92;1.30;;;18.10;99.90;;;;;;7392683;19;20150;-76
2022/07/08 02:39:04;;;;;;;3.65;1.50;;;18.00;99.90;;;;;;7394995;19;20662;-77
2022/07/08 02:41:30;;;;;;;3.13;1.38;;;18.00;99.90;;;;;;7391666;19;20213;-76
2022/07/08 02:43:56;;;;;;;5.88;1.42;;;17.90;99.90;;;;;;7391075;19;20131;-76
2022/07/08 02:46:22;;;;;;;4.57;1.60;;;17.80;99.90;;;;;;7389610;19;20151;-77
2022/07/08 02:48:48;;;;;;;2.90;1.25;;;17.80;99.90;;;;;;7391647;19;20157;-75
2022/07/08 02:51:14;;;;;;;3.85;1.48;;;17.60;99.90;;;;;;7392030;19;20137;-75
2022/07/08 02:53:40;;;;;;;3.42;1.33;;;17.60;99.90;;;;;;7393285;19;20131;-76
2022/07/08 02:56:06;;;;;;;2.58;1.27;;;17.60;99.90;;;;;;7390331;19;20131;-75
2022/07/08 02:58:33;;;;;;;5.25;1.70;;;17.60;99.90;;;;;;7392161;19;20193;-76
2022/07/08 03:00:59;;;;;;;5.20;2.50;;;17.50;99.90;;;;;;7392139;19;20147;-76
2022/07/08 03:03:25;;;;;;;3.45;1.58;;;17.40;99.90;;;;;;7392145;19;20146;-76
2022/07/08 03:05:51;;;;;;;3.95;1.63;;;17.30;99.90;;;;;;7392048;19;20205;-76
2022/07/08 03:08:16;;;;;;;5.53;1.83;;;17.30;99.90;;;;;;7392485;19;20146;-77
2022/07/08 03:10:42;;;;;;;5.30;1.77;;;17.40;99.90;;;;;;7393099;19;20165;-77
2022/07/08 03:13:08;;;;;;;4.65;1.60;;;17.50;99.90;;;;;;7391664;19;20143;-75
2022/07/08 03:15:34;;;;;;;2.63;1.25;;;17.40;99.90;;;;;;7392940;19;20130;-76
2022/07/08 03:18:00;;;;;;;4.30;1.40;;;17.40;99.90;;;;;;7390559;19;20139;-76
2022/07/08 03:20:26;;;;;;;3.92;1.33;;;17.40;99.90;;;;;;7393984;19;20168;-77
2022/07/08 03:22:52;;;;;;;4.05;1.25;;;17.50;99.90;;;;;;7391807;19;20146;-76
2022/07/08 03:25:18;;;;;;;5.70;1.42;;;17.50;99.90;;;;;;7393139;19;20178;-76
2022/07/08 03:27:43;;;;;;;4.63;1.73;;;17.50;99.90;;;;;;7391228;19;20146;-78
2022/07/08 03:30:09;;;;;;;4.20;1.42;;;17.50;99.90;;;;;;7392376;19;20615;-76
2022/07/08 03:32:35;;;;;;;6.95;1.67;;;17.50;99.90;;;;;;7390796;19;20142;-76
2022/07/08 03:35:01;;;;;;;6.88;1.55;;;17.40;99.90;;;;;;7391379;19;20161;-76
2022/07/08 03:37:27;;;;;;;4.65;1.42;;;17.40;99.90;;;;;;7391953;19;20126;-77
2022/07/08 03:39:53;;;;;;;4.60;1.30;;;17.30;99.90;;;;;;7392242;19;20170;-77
2022/07/08 03:42:19;;;;;;;4.47;1.10;;;17.30;99.90;;;;;;7393152;19;20149;-76
2022/07/08 03:44:45;;;;;;;6.25;1.40;;;17.30;99.90;;;;;;7389609;19;20137;-76
2022/07/08 03:47:11;;;;;;;4.10;1.52;;;17.40;99.90;;;;;;7390469;19;20142;-76
2022/07/08 03:49:38;;;;;;;2.90;1.30;;;17.30;99.90;;;;;;7388755;19;20226;-77
2022/07/08 03:52:04;;;;;;;1.75;0.93;;;17.30;99.90;;;;;;7388848;19;20149;-76
2022/07/08 03:54:30;;;;;;;2.80;1.30;;;17.30;99.90;;;;;;7393773;19;20130;-79
2022/07/08 03:56:57;;;;;;;4.15;1.40;;;17.30;99.90;;;;;;7392933;19;20162;-76
2022/07/08 03:59:23;;;;;;;3.30;1.50;;;17.30;99.90;;;;;;7389758;19;20150;-76
2022/07/08 04:01:49;;;;;;;3.58;1.30;;;17.30;99.90;;;;;;7392586;19;20194;-76
2022/07/08 04:04:15;;;;;;;4.60;1.33;;;17.40;99.90;;;;;;7396229;19;20151;-76
2022/07/08 04:06:40;;;;;;;3.97;1.58;;;17.30;99.90;;;;;;7394967;19;20614;-76
2022/07/08 04:09:06;;;;;;;5.05;1.35;;;17.30;99.90;;;;;;7396329;19;20135;-76
2022/07/08 04:11:32;;;;;;;4.30;1.40;;;17.20;99.90;;;;;;7398289;19;20127;-76
2022/07/08 04:13:58;;;;;;;5.82;1.40;;;17.10;99.90;;;;;;7398870;19;20152;-76
2022/07/08 04:16:23;;;;;;;5.70;1.52;;;17.20;99.90;;;;;;7396728;19;20198;-77
2022/07/08 04:18:49;;;;;;;2.80;1.15;;;17.30;99.90;;;;;;7397201;19;20803;-76
2022/07/08 04:21:15;;;;;;;2.50;1.30;;;17.30;99.90;;;;;;7397856;19;20139;-78
2022/07/08 04:23:41;;;;;;;5.25;1.30;;;17.10;99.90;;;;;;7399163;19;20138;-76
2022/07/08 04:26:07;;;;;;;5.13;1.63;;;17.20;99.90;;;;;;7394620;19;20540;-76
2022/07/08 04:28:34;;;;;;;4.10;1.23;;;17.20;99.90;;;;;;7396344;19;20139;-76
2022/07/08 04:31:00;;;;;;;7.70;3.70;;;17.30;99.90;;;;;;7397138;19;20157;-77
2022/07/08 04:33:26;;;;;;;7.20;1.63;;;17.50;99.90;;;;;;7396612;19;20171;-76
2022/07/08 04:35:52;;;;;;;4.85;1.65;;;17.60;99.90;;;;;;7398043;19;20131;-75
2022/07/08 04:38:18;;;;;;;5.88;1.50;;;17.60;99.90;;;;;;7396892;19;20227;-76
2022/07/08 04:40:44;;;;;;;5.53;1.65;;;17.50;99.90;;;;;;7395874;19;20154;-78
2022/07/08 04:43:11;;;;;;;6.75;1.73;;;17.50;99.90;;;;;;7396634;19;20138;-77
2022/07/08 04:45:36;;;;;;;6.00;1.83;;;17.50;99.90;;;;;;7398225;19;20149;-76
2022/07/08 04:48:02;;;;;;;4.93;1.42;;;17.40;99.90;;;;;;7395132;19;20151;-76
2022/07/08 04:50:28;;;;;;;6.38;1.70;;;17.20;99.90;;;;;;7394813;19;20150;-76
2022/07/08 04:52:54;;;;;;;3.55;1.48;;;17.30;99.90;;;;;;7396979;19;20134;-76
2022/07/08 04:55:29;;;;;;;4.97;1.42;;;17.20;99.90;;;;;;7395647;19;20611;-77
2022/07/08 04:58:03;;;;;;;4.63;1.70;;;17.30;99.90;;;;;;7397358;19;20154;-77
2022/07/08 05:00:30;;;;;;;2.33;1.27;;;17.50;99.90;;;;;;7394033;19;20214;-77
2022/07/08 05:02:57;;;;;;;4.32;2.00;;;17.60;99.90;;;;;;7397873;19;20158;-77
2022/07/08 05:05:23;;;;;;;2.50;1.00;;;17.70;99.90;;;;;;7395882;19;20498;-78
2022/07/08 05:07:49;;;;;;;3.92;1.42;;;17.70;99.90;;;;;;7396998;19;20139;-79
2022/07/08 05:10:16;;;;;;;2.92;1.20;;;17.70;99.90;;;;;;7398052;19;20127;-78
2022/07/08 05:12:43;;;;;;;5.35;1.23;;;17.70;99.90;;;;;;7397453;19;20143;-77
2022/07/08 05:15:10;;;;;;;7.20;1.98;;;17.50;99.90;;;;;;7391805;19;20134;-77
2022/07/08 05:17:35;;;;;;;5.72;1.83;;;17.50;99.90;;;;;;7396004;19;20134;-76
2022/07/08 05:20:01;;;;;;;5.75;1.95;;;17.50;99.90;;;;;;7393669;19;20130;-76
2022/07/08 05:22:27;;;;;;;2.83;1.10;;;17.60;99.90;;;;;;7396431;19;20135;-76
2022/07/08 05:24:53;;;;;;;3.75;1.67;;;17.50;99.90;;;;;;7393758;19;20167;-76
2022/07/08 05:27:20;;;;;;;4.65;1.50;;;17.50;99.90;;;;;;7392796;19;20158;-76
2022/07/08 05:29:46;;;;;;;5.43;1.48;;;17.60;99.90;;;;;;7396056;19;20169;-77
2022/07/08 05:32:12;;;;;;;2.00;1.13;;;17.60;99.90;;;;;;7395287;19;20564;-77
2022/07/08 05:34:41;;;;;;;7.68;1.33;;;17.70;99.90;;;;;;7394654;19;20146;-77
2022/07/08 05:37:08;;;;;;;4.47;1.40;;;17.70;99.90;;;;;;7394486;19;20138;-77
2022/07/08 05:39:34;;;;;;;4.22;1.23;;;17.60;99.90;;;;;;7393991;19;20134;-77
2022/07/08 05:41:59;;;;;;;3.35;1.55;;;17.60;99.90;;;;;;7393515;19;20155;-76
2022/07/08 05:44:25;;;;;;;5.55;1.52;;;17.60;99.90;;;;;;7392605;19;20477;-78
2022/07/08 05:46:51;;;;;;;5.50;1.40;;;17.70;99.90;;;;;;7392127;19;20240;-76
2022/07/08 05:49:17;;;;;;;4.00;1.30;;;17.70;99.90;;;;;;7394317;19;20464;-79
2022/07/08 05:51:43;;;;;;;6.55;1.35;;;17.80;99.90;;;;;;7393993;19;20494;-78
2022/07/08 05:54:08;;;;;;;3.95;1.08;;;17.90;99.90;;;;;;7394907;19;20145;-78
2022/07/08 05:56:35;;;;;;;2.78;1.38;;;17.80;99.90;;;;;;7393152;19;20165;-78
2022/07/08 05:59:01;;;;;;;6.13;1.70;;;17.80;99.90;;;;;;7391254;19;20150;-77
2022/07/08 06:01:26;;;;;;;3.92;1.40;;;17.70;99.90;;;;;;7392471;19;20146;-78
2022/07/08 06:03:52;;;;;;;8.75;1.77;;;17.60;99.90;;;;;;7391999;19;20142;-77
2022/07/08 06:06:18;;;;;;;4.22;1.23;;;17.70;99.90;;;;;;7392344;19;20155;-77
2022/07/08 06:08:44;;;;;;;4.00;1.30;;;17.90;99.90;;;;;;7389763;19;20494;-76
2022/07/08 06:11:10;;;;;;;4.13;1.10;;;17.90;99.90;;;;;;7393318;19;20163;-76
2022/07/08 06:13:35;;;;;;;2.80;1.30;;;18.00;99.90;;;;;;7395264;19;20159;-77
2022/07/08 06:16:02;;;;;;;5.85;1.38;;;17.90;99.90;;;;;;7392687;19;20160;-77
2022/07/08 06:18:28;;;;;;;3.40;1.20;;;17.90;99.90;;;;;;7394791;19;20209;-78
2022/07/08 06:20:53;;;;;;;4.18;1.17;;;18.10;99.90;;;;;;7391054;19;20157;-76
2022/07/08 06:23:19;;;;;;;4.72;1.13;;;18.40;99.90;;;;;;7392972;19;20146;-77
2022/07/08 06:25:45;;;;;;;4.30;1.40;;;18.90;99.90;;;;;;7391857;19;20181;-79
2022/07/08 06:28:11;;;;;;;5.38;1.05;;;19.30;99.90;;;;;;7392605;19;20165;-77
2022/07/08 06:30:36;;;;;;;3.22;1.10;;;19.50;99.90;;;;;;7393701;19;20147;-78
2022/07/08 06:33:02;;;;;;;4.57;1.23;;;20.00;99.90;;;;;;7392364;19;20482;-77
2022/07/08 06:35:28;;;;;;;3.50;1.17;;;19.90;99.90;;;;;;7392793;19;20139;-77
2022/07/08 06:37:55;;;;;;;8.63;5.05;;;19.30;99.90;;;;;;7392998;19;20189;-78
2022/07/08 06:40:21;;;;;;;3.15;1.73;;;19.20;99.90;;;;;;7394891;19;20154;-77
2022/07/08 06:42:51;;;;;;;4.13;1.42;;;19.80;99.90;;;;;;7393568;19;20143;-80
2022/07/08 06:45:17;;;;;;;2.53;1.00;;;19.60;99.90;;;;;;7396864;19;20150;-78
2022/07/08 06:47:43;;;;;;;1.58;0.80;;;19.40;99.90;;;;;;7393449;19;20135;-77
2022/07/08 06:50:09;;;;;;;3.28;1.10;;;19.40;99.90;;;;;;7393770;19;20169;-77
2022/07/08 06:52:36;;;;;;;2.50;1.08;;;19.70;99.90;;;;;;7394497;19;20198;-74
2022/07/08 06:55:03;;;;;;;2.88;1.10;;;19.70;99.90;;;;;;7393467;19;20273;-79
2022/07/08 06:57:29;;;;;;;2.75;1.13;;;19.50;99.90;;;;;;7392564;19;20156;-81
2022/07/08 06:59:55;;;;;;;2.80;1.27;;;19.60;99.90;;;;;;7392456;19;20131;-78
2022/07/08 07:02:23;;;;;;;2.83;1.42;;;19.50;99.90;;;;;;7391013;19;20161;-78
2022/07/08 07:04:49;;;;;;;3.75;1.10;;;19.30;99.90;;;;;;7392516;19;20172;-77
2022/07/08 07:07:16;;;;;;;4.65;1.10;;;19.10;99.90;;;;;;7393722;19;20675;-76
2022/07/08 07:09:42;;;;;;;5.15;1.02;;;19.00;99.90;;;;;;7392539;19;20135;-77
2022/07/08 07:12:09;;;;;;;5.72;1.17;;;19.00;99.90;;;;;;7393222;19;20167;-77
2022/07/08 07:14:36;;;;;;;1.77;0.98;;;19.00;99.90;;;;;;7390725;19;20173;-78
2022/07/08 07:17:02;;;;;;;4.07;0.85;;;19.00;99.90;;;;;;7389947;19;20246;-78
2022/07/08 07:19:28;;;;;;;2.08;0.70;;;20.00;99.30;;;;;;7391315;19;20158;-78
2022/07/08 07:21:54;;;;;;;5.38;1.30;;;21.10;97.70;;;;;;7392285;19;20157;-78
2022/07/08 07:24:23;;;;;;;11.48;1.45;;;22.00;96.10;;;;;;7393542;19;20139;-79
2022/07/08 07:26:49;;;;;;;3.92;1.45;;;21.60;95.90;;;;;;7387232;19;20181;-78
2022/07/08 07:29:15;;;;;;;5.90;1.30;;;21.30;96.40;;;;;;7392476;19;20143;-78
2022/07/08 07:31:41;;;;;;;3.88;1.10;;;20.80;96.30;;;;;;7391616;19;20481;-77
2022/07/08 07:34:07;;;;;;;5.90;1.27;;;20.50;97.00;;;;;;7389228;19;20146;-79
2022/07/08 07:36:33;;;;;;;1.73;1.00;;;20.20;97.40;;;;;;7395278;19;20142;-78
2022/07/08 07:38:59;;;;;;;6.25;1.63;;;19.90;97.60;;;;;;7397540;19;20142;-78
2022/07/08 07:41:25;;;;;;;3.28;1.20;;;19.80;98.00;;;;;;7397799;19;20527;-79
2022/07/08 07:43:51;;;;;;;4.00;1.00;;;19.70;98.20;;;;;;7399261;19;20135;-79
2022/07/08 07:46:16;;;;;;;4.60;1.40;;;19.60;98.20;;;;;;7396495;19;20181;-79
2022/07/08 07:48:43;;;;;;;3.45;1.13;;;19.50;98.60;;;;;;7396895;19;20620;-78
2022/07/08 07:51:10;;;;;;;4.85;1.00;;;19.40;98.50;;;;;;7401005;19;20154;-78
2022/07/08 07:53:37;;;;;;;6.53;3.28;;;19.40;98.30;;;;;;7402026;19;20615;-78
2022/07/08 07:56:03;;;;;;;6.30;1.65;;;19.50;98.50;;;;;;7397852;19;20145;-78
2022/07/08 07:58:29;;;;;;;12.10;2.53;;;19.40;98.20;;;;;;7400850;19;20600;-77
2022/07/08 08:00:55;;;;;;;12.52;1.50;;;19.50;98.40;;;;;;7397983;19;20184;-77
2022/07/08 08:03:20;;;;;;;2.25;1.02;;;19.60;97.90;;;;;;7397478;19;20149;-77
2022/07/08 08:05:46;;;;;;;6.63;1.45;;;19.80;97.60;;;;;;7399701;19;20210;-76
2022/07/08 08:08:13;;;;;;;3.33;1.20;;;19.70;97.60;;;;;;7398117;19;20155;-77
2022/07/08 08:10:39;;;;;;;3.60;0.80;;;19.50;98.00;;;;;;7399735;19;20150;-77
2022/07/08 08:13:05;;;;;;;5.40;2.22;;;19.20;98.10;;;;;;7398659;19;20263;-79
2022/07/08 08:15:32;;;;;;;4.85;1.02;;;18.60;99.40;;;;;;7401049;19;20670;-76
2022/07/08 08:17:59;;;;;;;3.20;1.20;;;19.10;98.80;;;;;;7406596;19;20147;-77
2022/07/08 08:20:26;;;;;;;2.88;1.58;;;19.50;98.00;;;;;;7398299;19;20210;-78
2022/07/08 08:22:53;;;;;;;3.40;0.80;;;19.60;97.60;;;;;;7396722;19;20259;-78
2022/07/08 08:25:19;;;;;;;3.35;1.48;;;19.70;97.20;;;;;;7396746;19;20182;-78
2022/07/08 08:27:45;;;;;;;3.10;2.13;;;19.60;97.50;;;;;;7396697;19;20160;-77
2022/07/08 08:30:12;;;;;;;4.90;1.40;;;19.40;96.90;;;;;;7398247;19;20591;-77
2022/07/08 08:32:38;;;;;;;5.15;1.30;;;19.50;97.60;;;;;;7398785;19;20602;-77
2022/07/08 08:35:05;;;;;;;5.68;1.40;;;19.60;97.00;;;;;;7396890;19;20142;-77
2022/07/08 08:37:32;;;;;;;2.67;1.00;;;19.70;96.70;;;;;;7397493;19;20147;-79
2022/07/08 08:40:05;;;;;;;2.20;0.90;;;19.70;97.20;;;;;;7394381;19;20564;-77
2022/07/08 08:42:32;;;;;;;6.95;1.02;;;19.80;96.70;;;;;;7397824;19;20162;-78
2022/07/08 08:44:59;;;;;;;7.50;3.15;;;20.10;96.70;;;;;;7399219;19;20143;-77
2022/07/08 08:47:32;;;;;;;2.88;1.33;;;20.60;96.00;;;;;;7399526;19;20618;-77
2022/07/08 08:52:49;;;;;;;4.00;1.38;;;21.20;94.70;;;;;;7398430;19;20146;-77
2022/07/08 08:55:27;;;;;;;3.67;1.00;;;21.00;94.50;;;;;;7401454;19;20147;-79
2022/07/08 08:57:57;;;;;;;2.28;0.85;;;20.60;94.70;;;;;;7397240;19;20145;-79
2022/07/08 09:00:24;;;;;;;3.60;1.50;;;20.50;95.10;;;;;;7393543;19;20134;-77
2022/07/08 09:02:51;;;;;;;3.17;1.10;;;20.40;95.30;;;;;;7394797;19;20143;-77
2022/07/08 09:05:17;;;;;;;2.38;1.13;;;20.30;95.40;;;;;;7404215;19;20515;-78
2022/07/08 09:07:44;;;;;;;2.88;1.00;;;20.20;95.30;;;;;;7410162;19;20170;-79
2022/07/08 09:10:11;;;;;;;1.73;1.20;;;20.10;95.40;;;;;;7401789;19;20219;-78
2022/07/08 09:12:37;;;;;;;1.60;0.70;;;20.10;96.20;;;;;;7395414;19;20142;-77
2022/07/08 09:15:04;;;;;;;4.22;1.15;;;20.80;94.90;;;;;;7397234;19;20488;-79
2022/07/08 09:17:30;;;;;;;4.30;0.93;;;21.20;94.10;;;;;;7396463;19;20254;-77
2022/07/08 09:19:56;;;;;;;5.90;1.35;;;21.30;94.00;;;;;;7393958;19;20157;-78
2022/07/08 09:22:23;;;;;;;3.63;1.00;;;21.10;94.40;;;;;;7393117;19;20139;-79
2022/07/08 09:24:49;;;;;;;3.25;0.93;;;21.10;94.30;;;;;;7395063;19;20621;-79
2022/07/08 09:27:16;;;;;;;4.45;1.20;;;20.80;95.00;;;;;;7391673;19;20174;-78
2022/07/08 09:29:58;;;;;;;5.05;1.05;;;20.60;95.00;;;;;;7398858;19;20153;-85
2022/07/08 09:32:24;;;;;;;3.50;0.90;;;20.60;95.10;;;;;;7396034;19;20718;-85
2022/07/08 09:34:50;;;;;;;3.33;1.08;;;20.90;95.00;;;;;;7397330;19;20130;-85
2022/07/08 09:37:18;;;;;;;2.92;1.17;;;21.50;94.50;;;;;;7394079;19;20226;-86
2022/07/08 09:39:45;;;;;;;9.25;4.10;;;21.60;93.60;;;;;;7397926;19;20138;-85
2022/07/08 09:42:13;;;;;;;7.25;3.67;;;21.40;93.70;;;;;;7398276;19;20221;-87
2022/07/08 09:44:40;;;;;;;1.48;1.17;;;21.30;94.40;;;;;;7396833;19;20141;-85
2022/07/08 09:47:14;;;;;;;4.63;0.80;;;21.50;93.20;;;;;;7395434;19;20202;-88
2022/07/08 09:49:46;;;;;;;3.33;1.20;;;21.30;93.40;;;;;;7393477;19;20145;-86
2022/07/08 09:52:23;;;;;;;5.68;1.00;;;21.10;93.70;;;;;;7394992;19;20166;-85
2022/07/08 09:55:00;;;;;;;4.75;1.35;;;21.30;93.60;;;;;;7396015;19;20532;-83
2022/07/08 09:57:27;;;;;;;3.22;1.15;;;21.60;93.40;;;;;;7397425;19;20165;-84
2022/07/08 09:59:54;;;;;;;2.58;0.90;;;22.00;93.30;;;;;;7394971;19;20173;-85
2022/07/08 10:02:20;;;;;;;3.83;1.20;;;22.40;92.40;;;;;;7392241;19;20135;-87
2022/07/08 10:04:50;;;;;;;3.08;0.80;;;22.70;91.80;;;;;;7393406;19;20145;-85
2022/07/08 10:07:16;;;;;;;2.45;0.75;;;22.30;91.70;;;;;;7393696;19;20169;-86
2022/07/08 10:09:43;;;;;;;2.83;1.02;;;21.80;92.40;;;;;;7403827;19;20145;-87
2022/07/08 10:12:13;;;;;;;4.32;0.88;;;21.40;93.00;;;;;;7391043;19;20219;-85
2022/07/08 10:14:43;;;;;;;1.30;0.80;;;21.40;93.10;;;;;;7400734;19;20158;-86
2022/07/08 10:17:14;;;;;;;2.67;1.10;;;21.40;92.70;;;;;;7391637;19;20146;-87
2022/07/08 10:19:41;;;;;;;1.27;0.90;;;21.30;92.80;;;;;;7395605;19;20198;-83
2022/07/08 10:22:09;;;;;;;1.30;0.80;;;21.20;92.80;;;;;;7393660;19;20482;-84
2022/07/08 10:24:39;;;;;;;1.48;1.02;;;21.30;92.60;;;;;;7391187;19;20628;-82
2022/07/08 10:27:05;;;;;;;4.15;1.00;;;21.40;92.70;;;;;;7390594;19;20237;-82
2022/07/08 10:29:33;;;;;;;1.98;0.70;;;21.70;92.50;;;;;;7390475;19;20143;-85
2022/07/08 10:31:59;;;;;;;3.05;0.90;;;21.80;92.50;;;;;;7392798;19;20154;-83
2022/07/08 10:34:34;;;;;;;5.45;2.67;;;21.50;93.50;;;;;;7393719;19;20156;-86
2022/07/08 10:37:04;;;;;;;3.40;1.60;;;21.40;93.60;;;;;;7396267;19;20149;-87
2022/07/08 10:39:31;;;;;;;7.57;1.00;;;21.30;93.80;;;;;;7394602;19;20142;-87
2022/07/08 10:42:01;;;;;;;2.13;1.40;;;21.20;93.70;;;;;;7395718;19;20138;-84
2022/07/08 10:44:45;;;;;;;3.88;1.40;;;21.20;93.70;;;;;;7393685;19;20131;-82
2022/07/08 10:47:19;;;;;;;3.33;0.85;;;21.20;93.60;;;;;;7409051;19;20155;-85
2022/07/08 10:49:49;;;;;;;3.03;1.05;;;21.20;93.50;;;;;;7392524;19;20150;-86
2022/07/08 10:52:16;;;;;;;1.92;0.88;;;21.30;93.40;;;;;;7394419;19;20175;-85
2022/07/08 10:54:43;;;;;;;3.55;1.27;;;21.30;93.10;;;;;;7392727;19;20610;-87
2022/07/08 10:57:24;;;;;;;2.47;0.80;;;21.20;93.20;;;;;;7396872;19;20146;-85
2022/07/08 11:00:15;;;;;;;4.00;1.27;;;21.20;93.40;;;;;;7394059;19;20607;-84
2022/07/08 11:02:45;;;;;;;2.15;0.77;;;21.20;93.10;;;;;;7394341;19;20222;-84
2022/07/08 11:05:39;;;;;;;3.83;0.82;;;21.30;92.70;;;;;;7393290;19;20146;-86
2022/07/08 11:08:25;;;;;;;2.53;0.95;;;21.30;92.90;;;;;;7393759;19;20717;-82
2022/07/08 11:10:53;;;;;;;2.97;0.88;;;21.40;92.70;;;;;;7395996;19;20173;-84
2022/07/08 11:13:20;;;;;;;5.53;1.27;;;21.50;92.70;;;;;;7392617;19;20138;-85
2022/07/08 11:15:46;;;;;;;5.85;1.38;;;21.60;92.60;;;;;;7394832;19;20480;-86
2022/07/08 11:18:22;;;;;;;4.50;1.05;;;21.60;92.60;;;;;;7392749;19;20151;-85
2022/07/08 11:20:49;;;;;;;1.63;0.60;;;21.80;92.10;;;;;;7395487;19;20142;-86
2022/07/08 11:23:16;;;;;;;2.15;0.70;;;21.70;91.50;;;;;;7404436;19;20144;-87
2022/07/08 11:25:42;;;;;;;2.42;0.70;;;21.60;91.80;;;;;;7392567;19;20209;-86
2022/07/08 11:28:28;;;;;;;3.92;0.68;;;21.70;91.70;;;;;;7392762;19;20123;-86
2022/07/08 11:30:54;;;;;;;3.75;0.82;;;21.70;92.00;;;;;;7390752;19;20154;-85
2022/07/08 11:33:40;;;;;;;3.95;1.00;;;21.60;91.80;;;;;;7389908;19;20155;-86
2022/07/08 11:36:17;;;;;;;1.13;0.63;;;21.70;91.50;;;;;;7395846;19;20172;-85
2022/07/08 11:38:44;;;;;;;1.38;0.60;;;21.70;91.50;;;;;;7395899;19;20142;-86
2022/07/08 11:41:10;;;;;;;1.92;0.70;;;21.80;91.60;;;;;;7394763;19;20615;-86
2022/07/08 11:43:36;;;;;;;2.55;0.85;;;22.00;91.50;;;;;;7391033;19;20141;-85
2022/07/08 11:46:02;;;;;;;3.47;0.82;;;22.00;91.30;;;;;;7395939;19;20173;-87
2022/07/08 11:48:37;;;;;;;2.38;0.82;;;22.10;91.10;;;;;;7397059;19;20210;-89
2022/07/08 11:51:03;;;;;;;1.80;1.02;;;22.00;91.00;;;;;;7394808;19;20134;-91
2022/07/08 11:53:30;;;;;;;2.67;1.00;;;22.10;91.10;;;;;;7394511;19;20135;-87
2022/07/08 11:55:56;;;;;;;1.85;0.70;;;22.20;91.10;;;;;;7395963;19;20179;-91
2022/07/08 11:58:23;;;;;;;1.63;0.63;;;22.10;90.90;;;;;;7395037;19;20167;-89
2022/07/08 12:00:50;;;;;;;3.17;1.08;;;22.10;90.90;;;;;;7394967;19;20146;-88
2022/07/08 12:03:16;;;;;;;1.85;0.80;;;22.10;90.80;;;;;;7393425;19;20138;-87
2022/07/08 12:05:43;;;;;;;2.05;0.95;;;22.10;90.80;;;;;;7398165;19;20154;-88
2022/07/08 12:08:11;;;;;;;1.42;0.75;;;22.10;90.60;;;;;;7392619;19;20138;-87
2022/07/08 12:10:37;;;;;;;1.30;0.60;;;22.10;90.90;;;;;;7394383;19;20156;-85
2022/07/08 12:13:02;;;;;;;2.42;1.20;;;22.20;90.50;;;;;;7390596;19;20127;-90
2022/07/08 12:15:36;;;;;;;3.58;0.63;;;22.30;90.70;;;;;;7394185;19;20230;-87
2022/07/08 12:18:04;;;;;;;1.65;0.70;;;22.30;90.90;;;;;;7394382;19;20168;-85
2022/07/08 12:20:48;;;;;;;1.23;0.88;;;22.20;90.90;;;;;;7395217;19;20135;-88
2022/07/08 12:23:15;;;;;;;2.38;0.80;;;22.30;91.00;;;;;;7397394;19;20152;-89
2022/07/08 12:25:53;;;;;;;1.20;0.60;;;22.40;90.70;;;;;;7395171;19;20185;-85
2022/07/08 12:28:23;;;;;;;2.95;0.90;;;22.40;91.40;;;;;;7399159;19;20142;-87
2022/07/08 12:30:49;;;;;;;0.80;0.60;;;22.70;91.20;;;;;;7400468;19;20159;-87
2022/07/08 12:33:25;;;;;;;6.35;1.10;;;22.90;90.90;;;;;;7398794;19;20143;-87
2022/07/08 12:35:52;;;;;;;3.08;1.30;;;22.90;90.80;;;;;;7401143;19;20157;-87
2022/07/08 12:38:23;;;;;;;4.68;1.20;;;22.80;90.80;;;;;;7401112;19;20179;-88
2022/07/08 12:40:49;;;;;;;3.88;1.00;;;22.90;90.20;;;;;;7400225;19;20149;-90
2022/07/08 12:43:15;;;;;;;2.90;1.17;;;22.90;90.00;;;;;;7401914;19;20607;-89
2022/07/08 12:45:41;;;;;;;4.18;0.90;;;22.80;90.00;;;;;;7397132;19;20146;-89
2022/07/08 12:48:07;;;;;;;2.63;1.10;;;22.50;90.40;;;;;;7395386;19;20165;-90
2022/07/08 12:50:34;;;;;;;3.60;0.82;;;22.50;90.30;;;;;;7397331;19;20138;-89
2022/07/08 12:53:02;;;;;;;1.23;0.73;;;22.60;90.00;;;;;;7394231;19;20628;-90